Decoded Metar for CYYL (LYNN LAKE in MB, CANADA) (IATA:YYL) | Meteo·Mobile Aviation Weather
aviador You're here:

CYYL Decoded Metar

LYNN LAKE in MB, CANADA
Report Time2019-06-27 08:00:00
UTC Time2019-06-27 09:00:42
Flight Rules lifr LIFR
Wind060° at 03 kt
W.Decomp.*RWY 08: 2.6 kt HW 1.4 kt LCW
RWY 35: 1.4 kt HW 2.6 kt RCW
Visibility9999 m
Phenomena:N/A
Clouds:Overcast 004 Hf
Ceiling400 ft
Temp12°C (ISA -1)
Dew Point12°C (100% RH)
AAT11.5°C
QNH1017 hPa
Density Alt1,148 ft
Elevation1,171 ft
Report Wrong Elevation
Raw Report
CYYL 270800Z AUTO 06003KT 9SM OVC004 12/12 A3004 RMK SLP185=

Extra information for CYYL:More info

Metar Taf Metar & Taf Last 4 Metars F.Rules Stats Wind Profile Meteogram Temp Stats Airport Information Weather charts Add Link Nearby VenuesMetar ALERT Operation Metar Decoded Social comments